sensor_id;sensor_type;location;lat;lon;timestamp;temperature;humidity
23609;DHT22;11982;50.810;4.442;2023-04-07T00:00:06;8.50;99.90
23609;DHT22;11982;50.810;4.442;2023-04-07T00:02:32;8.50;99.90
23609;DHT22;11982;50.810;4.442;2023-04-07T00:04:58;8.60;99.90
23609;DHT22;11982;50.810;4.442;2023-04-07T00:07:24;8.60;99.90
23609;DHT22;11982;50.810;4.442;2023-04-07T00:09:49;8.60;99.90
23609;DHT22;11982;50.810;4.442;2023-04-07T00:12:15;8.60;99.90
23609;DHT22;11982;50.810;4.442;2023-04-07T00:14:41;8.60;99.90
23609;DHT22;11982;50.810;4.442;2023-04-07T00:17:07;8.60;99.90
23609;DHT22;11982;50.810;4.442;2023-04-07T00:19:33;8.60;99.90
23609;DHT22;11982;50.810;4.442;2023-04-07T00:21:58;8.60;99.90
23609;DHT22;11982;50.810;4.442;2023-04-07T00:24:24;8.60;99.90
23609;DHT22;11982;50.810;4.442;2023-04-07T00:26:49;8.60;99.90
23609;DHT22;11982;50.810;4.442;2023-04-07T00:29:15;8.50;99.90
23609;DHT22;11982;50.810;4.442;2023-04-07T00:31:41;8.50;99.90
23609;DHT22;11982;50.810;4.442;2023-04-07T00:34:07;8.60;99.90
23609;DHT22;11982;50.810;4.442;2023-04-07T00:36:32;8.60;99.90
23609;DHT22;11982;50.810;4.442;2023-04-07T00:38:58;8.60;99.90
23609;DHT22;11982;50.810;4.442;2023-04-07T00:41:24;8.60;99.90
23609;DHT22;11982;50.810;4.442;2023-04-07T00:43:50;8.60;99.90
23609;DHT22;11982;50.810;4.442;2023-04-07T00:46:17;8.70;99.90
23609;DHT22;11982;50.810;4.442;2023-04-07T00:48:44;8.70;99.90
23609;DHT22;11982;50.810;4.442;2023-04-07T00:51:09;8.60;99.90
23609;DHT22;11982;50.810;4.442;2023-04-07T00:53:35;8.70;99.90
23609;DHT22;11982;50.810;4.442;2023-04-07T00:56:01;8.70;99.90
23609;DHT22;11982;50.810;4.442;2023-04-07T00:58:26;8.70;99.90
23609;DHT22;11982;50.810;4.442;2023-04-07T01:01:07;8.60;99.90
23609;DHT22;11982;50.810;4.442;2023-04-07T01:03:38;8.60;99.90
23609;DHT22;11982;50.810;4.442;2023-04-07T01:06:07;8.60;99.90
23609;DHT22;11982;50.810;4.442;2023-04-07T01:11:22;8.50;99.90
23609;DHT22;11982;50.810;4.442;2023-04-07T01:13:50;8.60;99.90
23609;DHT22;11982;50.810;4.442;2023-04-07T01:16:23;8.60;99.90
23609;DHT22;11982;50.810;4.442;2023-04-07T01:18:56;8.70;99.90
23609;DHT22;11982;50.810;4.442;2023-04-07T01:21:25;8.60;99.90
23609;DHT22;11982;50.810;4.442;2023-04-07T01:26:36;8.70;99.90
23609;DHT22;11982;50.810;4.442;2023-04-07T01:31:47;8.60;99.90
23609;DHT22;11982;50.810;4.442;2023-04-07T01:34:16;8.60;99.90
23609;DHT22;11982;50.810;4.442;2023-04-07T01:36:43;8.60;99.90
23609;DHT22;11982;50.810;4.442;2023-04-07T01:39:11;8.70;99.90
23609;DHT22;11982;50.810;4.442;2023-04-07T01:41:38;8.90;99.90
23609;DHT22;11982;50.810;4.442;2023-04-07T01:44:05;8.90;99.90
23609;DHT22;11982;50.810;4.442;2023-04-07T01:46:33;9.00;99.90
23609;DHT22;11982;50.810;4.442;2023-04-07T01:48:59;8.90;99.90
23609;DHT22;11982;50.810;4.442;2023-04-07T01:51:27;8.70;99.90
23609;DHT22;11982;50.810;4.442;2023-04-07T01:53:53;8.80;99.90
23609;DHT22;11982;50.810;4.442;2023-04-07T01:56:19;8.80;99.90
23609;DHT22;11982;50.810;4.442;2023-04-07T01:58:45;8.80;99.90
23609;DHT22;11982;50.810;4.442;2023-04-07T02:01:12;8.80;99.90
23609;DHT22;11982;50.810;4.442;2023-04-07T02:06:11;8.90;99.90
23609;DHT22;11982;50.810;4.442;2023-04-07T02:08:41;8.80;99.90
23609;DHT22;11982;50.810;4.442;2023-04-07T02:11:12;8.80;99.90
23609;DHT22;11982;50.810;4.442;2023-04-07T02:13:39;8.90;99.90
23609;DHT22;11982;50.810;4.442;2023-04-07T02:16:07;8.70;99.90
23609;DHT22;11982;50.810;4.442;2023-04-07T02:18:34;8.80;99.90
23609;DHT22;11982;50.810;4.442;2023-04-07T02:21:01;8.80;99.90
23609;DHT22;11982;50.810;4.442;2023-04-07T02:23:28;8.80;99.90
23609;DHT22;11982;50.810;4.442;2023-04-07T02:25:57;8.70;99.90
23609;DHT22;11982;50.810;4.442;2023-04-07T02:28:22;8.60;99.90
23609;DHT22;11982;50.810;4.442;2023-04-07T02:30:48;8.60;99.90
23609;DHT22;11982;50.810;4.442;2023-04-07T02:33:14;8.50;99.90
23609;DHT22;11982;50.810;4.442;2023-04-07T02:35:40;8.40;99.90
23609;DHT22;11982;50.810;4.442;2023-04-07T02:38:05;8.40;99.90
23609;DHT22;11982;50.810;4.442;2023-04-07T02:40:31;8.40;99.90
23609;DHT22;11982;50.810;4.442;2023-04-07T02:42:57;8.30;99.90
23609;DHT22;11982;50.810;4.442;2023-04-07T02:45:23;8.30;99.90
23609;DHT22;11982;50.810;4.442;2023-04-07T02:47:48;8.30;99.90
23609;DHT22;11982;50.810;4.442;2023-04-07T02:50:14;8.20;99.90
23609;DHT22;11982;50.810;4.442;2023-04-07T02:52:40;8.20;99.90
23609;DHT22;11982;50.810;4.442;2023-04-07T02:55:06;8.20;99.90
23609;DHT22;11982;50.810;4.442;2023-04-07T02:57:32;8.20;99.90
23609;DHT22;11982;50.810;4.442;2023-04-07T02:59:58;8.30;99.90
23609;DHT22;11982;50.810;4.442;2023-04-07T03:02:24;8.30;99.90
23609;DHT22;11982;50.810;4.442;2023-04-07T03:04:51;8.30;99.90
23609;DHT22;11982;50.810;4.442;2023-04-07T03:07:19;8.30;99.90
23609;DHT22;11982;50.810;4.442;2023-04-07T03:09:45;8.30;99.90
23609;DHT22;11982;50.810;4.442;2023-04-07T03:12:11;8.40;99.90
23609;DHT22;11982;50.810;4.442;2023-04-07T03:14:36;8.50;99.90
23609;DHT22;11982;50.810;4.442;2023-04-07T03:17:03;8.40;99.90
23609;DHT22;11982;50.810;4.442;2023-04-07T03:19:29;8.50;99.90
23609;DHT22;11982;50.810;4.442;2023-04-07T03:21:54;8.60;99.90
23609;DHT22;11982;50.810;4.442;2023-04-07T03:24:20;8.70;99.90
23609;DHT22;11982;50.810;4.442;2023-04-07T03:26:46;8.70;99.90
23609;DHT22;11982;50.810;4.442;2023-04-07T03:29:12;8.70;99.90
23609;DHT22;11982;50.810;4.442;2023-04-07T03:31:38;8.60;99.90
23609;DHT22;11982;50.810;4.442;2023-04-07T03:34:03;8.50;99.90
23609;DHT22;11982;50.810;4.442;2023-04-07T03:36:30;8.60;99.90
23609;DHT22;11982;50.810;4.442;2023-04-07T03:38:56;8.80;99.90
23609;DHT22;11982;50.810;4.442;2023-04-07T03:41:22;8.70;99.90
23609;DHT22;11982;50.810;4.442;2023-04-07T03:43:47;8.70;99.90
23609;DHT22;11982;50.810;4.442;2023-04-07T03:46:13;8.50;99.90
23609;DHT22;11982;50.810;4.442;2023-04-07T03:48:39;8.30;99.90
23609;DHT22;11982;50.810;4.442;2023-04-07T03:51:05;8.30;99.90
23609;DHT22;11982;50.810;4.442;2023-04-07T03:53:31;8.30;99.90
23609;DHT22;11982;50.810;4.442;2023-04-07T03:55:56;8.20;99.90
23609;DHT22;11982;50.810;4.442;2023-04-07T03:58:22;8.20;99.90
23609;DHT22;11982;50.810;4.442;2023-04-07T04:00:48;8.20;99.90
23609;DHT22;11982;50.810;4.442;2023-04-07T04:03:14;8.20;99.90
23609;DHT22;11982;50.810;4.442;2023-04-07T04:05:39;8.20;99.90
23609;DHT22;11982;50.810;4.442;2023-04-07T04:08:05;8.30;99.90
23609;DHT22;11982;50.810;4.442;2023-04-07T04:10:31;8.20;99.90
23609;DHT22;11982;50.810;4.442;2023-04-07T04:12:57;8.20;99.90
23609;DHT22;11982;50.810;4.442;2023-04-07T04:15:25;8.30;99.90
23609;DHT22;11982;50.810;4.442;2023-04-07T04:17:51;8.20;99.90
23609;DHT22;11982;50.810;4.442;2023-04-07T04:20:17;8.10;99.90
23609;DHT22;11982;50.810;4.442;2023-04-07T04:22:42;8.10;99.90
23609;DHT22;11982;50.810;4.442;2023-04-07T04:25:08;8.20;99.90
23609;DHT22;11982;50.810;4.442;2023-04-07T04:27:34;8.20;99.90
23609;DHT22;11982;50.810;4.442;2023-04-07T04:30:00;8.20;99.90
23609;DHT22;11982;50.810;4.442;2023-04-07T04:32:25;8.30;99.90
23609;DHT22;11982;50.810;4.442;2023-04-07T04:34:51;8.20;99.90
23609;DHT22;11982;50.810;4.442;2023-04-07T04:37:17;8.20;99.90
23609;DHT22;11982;50.810;4.442;2023-04-07T04:39:42;8.30;99.90
23609;DHT22;11982;50.810;4.442;2023-04-07T04:42:08;8.30;99.90
23609;DHT22;11982;50.810;4.442;2023-04-07T04:44:34;8.20;99.90
23609;DHT22;11982;50.810;4.442;2023-04-07T04:47:00;8.20;99.90
23609;DHT22;11982;50.810;4.442;2023-04-07T04:49:25;8.20;99.90
23609;DHT22;11982;50.810;4.442;2023-04-07T04:51:51;8.30;99.90
23609;DHT22;11982;50.810;4.442;2023-04-07T04:54:18;8.30;99.90
23609;DHT22;11982;50.810;4.442;2023-04-07T04:56:43;8.30;99.90
23609;DHT22;11982;50.810;4.442;2023-04-07T04:59:09;8.30;99.90
23609;DHT22;11982;50.810;4.442;2023-04-07T05:01:35;8.30;99.90
23609;DHT22;11982;50.810;4.442;2023-04-07T05:04:01;8.30;99.90
23609;DHT22;11982;50.810;4.442;2023-04-07T05:06:26;8.30;99.90
23609;DHT22;11982;50.810;4.442;2023-04-07T05:08:52;8.30;99.90
23609;DHT22;11982;50.810;4.442;2023-04-07T05:11:18;8.30;99.90
23609;DHT22;11982;50.810;4.442;2023-04-07T05:13:44;8.40;99.90
23609;DHT22;11982;50.810;4.442;2023-04-07T05:16:10;8.40;99.90
23609;DHT22;11982;50.810;4.442;2023-04-07T05:18:35;8.50;99.90
23609;DHT22;11982;50.810;4.442;2023-04-07T05:21:01;8.60;99.90
23609;DHT22;11982;50.810;4.442;2023-04-07T05:23:27;8.70;99.90
23609;DHT22;11982;50.810;4.442;2023-04-07T05:25:52;8.60;99.90
23609;DHT22;11982;50.810;4.442;2023-04-07T05:28:18;8.40;99.90
23609;DHT22;11982;50.810;4.442;2023-04-07T05:30:44;8.40;99.90
23609;DHT22;11982;50.810;4.442;2023-04-07T05:33:10;8.30;99.90
23609;DHT22;11982;50.810;4.442;2023-04-07T05:35:35;8.40;99.90
23609;DHT22;11982;50.810;4.442;2023-04-07T05:38:01;8.20;99.90
23609;DHT22;11982;50.810;4.442;2023-04-07T05:40:27;8.30;99.90
23609;DHT22;11982;50.810;4.442;2023-04-07T05:42:54;8.20;99.90
23609;DHT22;11982;50.810;4.442;2023-04-07T05:45:20;8.30;99.90
23609;DHT22;11982;50.810;4.442;2023-04-07T05:47:46;8.30;99.90
23609;DHT22;11982;50.810;4.442;2023-04-07T05:50:15;8.30;99.90
23609;DHT22;11982;50.810;4.442;2023-04-07T05:52:41;8.20;99.90
23609;DHT22;11982;50.810;4.442;2023-04-07T05:55:07;8.20;99.90
23609;DHT22;11982;50.810;4.442;2023-04-07T05:57:32;8.30;99.90
23609;DHT22;11982;50.810;4.442;2023-04-07T05:59:59;8.30;99.90
23609;DHT22;11982;50.810;4.442;2023-04-07T06:02:24;8.30;99.90
23609;DHT22;11982;50.810;4.442;2023-04-07T06:04:50;8.40;99.90
23609;DHT22;11982;50.810;4.442;2023-04-07T06:07:16;8.50;99.90
23609;DHT22;11982;50.810;4.442;2023-04-07T06:09:41;8.70;99.90
23609;DHT22;11982;50.810;4.442;2023-04-07T06:12:07;8.80;99.90
23609;DHT22;11982;50.810;4.442;2023-04-07T06:14:35;8.80;99.90
23609;DHT22;11982;50.810;4.442;2023-04-07T06:17:00;8.80;99.90
23609;DHT22;11982;50.810;4.442;2023-04-07T06:19:26;8.90;99.90
23609;DHT22;11982;50.810;4.442;2023-04-07T06:21:52;8.80;99.90
23609;DHT22;11982;50.810;4.442;2023-04-07T06:24:18;9.00;99.90
23609;DHT22;11982;50.810;4.442;2023-04-07T06:26:47;8.90;99.90
23609;DHT22;11982;50.810;4.442;2023-04-07T06:29:13;9.00;99.90
23609;DHT22;11982;50.810;4.442;2023-04-07T06:31:38;9.00;99.90
23609;DHT22;11982;50.810;4.442;2023-04-07T06:34:04;9.20;99.90
23609;DHT22;11982;50.810;4.442;2023-04-07T06:36:30;9.20;99.90
23609;DHT22;11982;50.810;4.442;2023-04-07T06:38:56;9.30;99.90
23609;DHT22;11982;50.810;4.442;2023-04-07T06:41:21;9.20;99.90
23609;DHT22;11982;50.810;4.442;2023-04-07T06:43:48;9.20;99.90
23609;DHT22;11982;50.810;4.442;2023-04-07T06:46:16;9.00;99.90
23609;DHT22;11982;50.810;4.442;2023-04-07T06:48:42;9.00;99.90
23609;DHT22;11982;50.810;4.442;2023-04-07T06:51:07;9.10;99.90
23609;DHT22;11982;50.810;4.442;2023-04-07T06:53:33;9.10;99.90
23609;DHT22;11982;50.810;4.442;2023-04-07T06:56:09;9.20;99.90
23609;DHT22;11982;50.810;4.442;2023-04-07T06:58:36;9.00;99.90
23609;DHT22;11982;50.810;4.442;2023-04-07T07:01:03;8.90;99.90
23609;DHT22;11982;50.810;4.442;2023-04-07T07:03:29;9.10;99.90
23609;DHT22;11982;50.810;4.442;2023-04-07T07:05:59;9.10;99.90
23609;DHT22;11982;50.810;4.442;2023-04-07T07:08:25;9.10;99.90
23609;DHT22;11982;50.810;4.442;2023-04-07T07:10:52;9.10;99.90
23609;DHT22;11982;50.810;4.442;2023-04-07T07:13:20;9.30;99.90
23609;DHT22;11982;50.810;4.442;2023-04-07T07:15:48;9.40;99.90
23609;DHT22;11982;50.810;4.442;2023-04-07T07:18:13;9.40;99.90
23609;DHT22;11982;50.810;4.442;2023-04-07T07:20:39;9.40;99.90
23609;DHT22;11982;50.810;4.442;2023-04-07T07:23:05;9.50;99.90
23609;DHT22;11982;50.810;4.442;2023-04-07T07:25:31;9.60;99.90
23609;DHT22;11982;50.810;4.442;2023-04-07T07:27:57;9.80;99.90
23609;DHT22;11982;50.810;4.442;2023-04-07T07:30:23;9.60;99.90
23609;DHT22;11982;50.810;4.442;2023-04-07T07:32:49;9.60;99.90
23609;DHT22;11982;50.810;4.442;2023-04-07T07:35:15;9.40;99.90
23609;DHT22;11982;50.810;4.442;2023-04-07T07:37:41;9.30;99.90
23609;DHT22;11982;50.810;4.442;2023-04-07T07:40:09;9.30;99.90
23609;DHT22;11982;50.810;4.442;2023-04-07T07:42:35;9.30;99.90
23609;DHT22;11982;50.810;4.442;2023-04-07T07:45:00;9.30;99.90
23609;DHT22;11982;50.810;4.442;2023-04-07T07:47:26;9.50;99.90
23609;DHT22;11982;50.810;4.442;2023-04-07T07:49:52;9.50;99.90
23609;DHT22;11982;50.810;4.442;2023-04-07T07:52:18;9.50;99.90
23609;DHT22;11982;50.810;4.442;2023-04-07T07:54:45;9.60;99.90
23609;DHT22;11982;50.810;4.442;2023-04-07T07:57:11;9.70;99.90
23609;DHT22;11982;50.810;4.442;2023-04-07T07:59:37;9.90;99.90
23609;DHT22;11982;50.810;4.442;2023-04-07T08:02:03;10.30;99.90
23609;DHT22;11982;50.810;4.442;2023-04-07T08:04:28;10.50;99.90
23609;DHT22;11982;50.810;4.442;2023-04-07T08:06:54;10.60;99.90
23609;DHT22;11982;50.810;4.442;2023-04-07T08:09:20;10.50;99.90
23609;DHT22;11982;50.810;4.442;2023-04-07T08:11:46;10.60;99.90
23609;DHT22;11982;50.810;4.442;2023-04-07T08:14:15;10.50;99.90
23609;DHT22;11982;50.810;4.442;2023-04-07T08:16:42;10.70;99.90
23609;DHT22;11982;50.810;4.442;2023-04-07T08:19:08;10.50;99.90
23609;DHT22;11982;50.810;4.442;2023-04-07T08:21:34;10.20;99.90
23609;DHT22;11982;50.810;4.442;2023-04-07T08:24:00;10.00;99.90
23609;DHT22;11982;50.810;4.442;2023-04-07T08:26:27;9.80;99.90
23609;DHT22;11982;50.810;4.442;2023-04-07T08:28:53;9.60;99.90
23609;DHT22;11982;50.810;4.442;2023-04-07T08:31:20;9.50;99.90
23609;DHT22;11982;50.810;4.442;2023-04-07T08:33:46;9.60;99.90
23609;DHT22;11982;50.810;4.442;2023-04-07T08:36:11;9.60;99.90
23609;DHT22;11982;50.810;4.442;2023-04-07T08:38:37;9.50;99.90
23609;DHT22;11982;50.810;4.442;2023-04-07T08:41:12;9.50;99.90
23609;DHT22;11982;50.810;4.442;2023-04-07T08:43:43;9.60;99.90
23609;DHT22;11982;50.810;4.442;2023-04-07T08:46:11;9.70;99.90
23609;DHT22;11982;50.810;4.442;2023-04-07T08:48:38;9.50;99.90
23609;DHT22;11982;50.810;4.442;2023-04-07T08:51:07;9.40;99.90
23609;DHT22;11982;50.810;4.442;2023-04-07T08:53:44;9.20;99.90
23609;DHT22;11982;50.810;4.442;2023-04-07T08:56:15;9.50;99.90
23609;DHT22;11982;50.810;4.442;2023-04-07T08:58:42;9.60;99.90
23609;DHT22;11982;50.810;4.442;2023-04-07T09:01:08;9.70;99.90
23609;DHT22;11982;50.810;4.442;2023-04-07T09:03:34;9.60;99.90
23609;DHT22;11982;50.810;4.442;2023-04-07T09:06:01;9.70;99.90
23609;DHT22;11982;50.810;4.442;2023-04-07T09:08:27;9.80;99.90
23609;DHT22;11982;50.810;4.442;2023-04-07T09:10:53;9.80;99.90
23609;DHT22;11982;50.810;4.442;2023-04-07T09:13:20;10.10;99.90
23609;DHT22;11982;50.810;4.442;2023-04-07T09:15:46;10.30;99.90
23609;DHT22;11982;50.810;4.442;2023-04-07T09:18:12;10.50;99.90
23609;DHT22;11982;50.810;4.442;2023-04-07T09:21:11;10.60;99.90
23609;DHT22;11982;50.810;4.442;2023-04-07T09:23:39;11.00;99.90
23609;DHT22;11982;50.810;4.442;2023-04-07T09:31:19;10.70;99.90
23609;DHT22;11982;50.810;4.442;2023-04-07T09:33:47;11.00;99.90
23609;DHT22;11982;50.810;4.442;2023-04-07T09:36:13;11.50;99.90
23609;DHT22;11982;50.810;4.442;2023-04-07T09:38:40;11.60;99.90
23609;DHT22;11982;50.810;4.442;2023-04-07T09:41:10;11.60;99.90
23609;DHT22;11982;50.810;4.442;2023-04-07T09:43:38;11.80;99.90
23609;DHT22;11982;50.810;4.442;2023-04-07T09:46:09;11.80;99.90
23609;DHT22;11982;50.810;4.442;2023-04-07T09:48:35;12.00;99.90
23609;DHT22;11982;50.810;4.442;2023-04-07T09:51:15;12.00;99.90
23609;DHT22;11982;50.810;4.442;2023-04-07T09:53:48;11.90;99.90
23609;DHT22;11982;50.810;4.442;2023-04-07T09:56:19;12.00;99.90
23609;DHT22;11982;50.810;4.442;2023-04-07T09:58:47;12.10;99.90
23609;DHT22;11982;50.810;4.442;2023-04-07T10:01:15;11.90;99.90
23609;DHT22;11982;50.810;4.442;2023-04-07T10:03:42;11.80;99.90
23609;DHT22;11982;50.810;4.442;2023-04-07T10:06:08;12.00;99.90
23609;DHT22;11982;50.810;4.442;2023-04-07T10:08:36;11.60;99.90
23609;DHT22;11982;50.810;4.442;2023-04-07T10:11:03;11.50;99.90
23609;DHT22;11982;50.810;4.442;2023-04-07T10:13:31;11.50;99.90
23609;DHT22;11982;50.810;4.442;2023-04-07T10:15:58;11.60;99.90
23609;DHT22;11982;50.810;4.442;2023-04-07T10:18:31;11.90;99.90
23609;DHT22;11982;50.810;4.442;2023-04-07T10:21:02;12.60;99.90
23609;DHT22;11982;50.810;4.442;2023-04-07T10:26:25;12.90;99.90
23609;DHT22;11982;50.810;4.442;2023-04-07T10:28:59;12.50;99.90
23609;DHT22;11982;50.810;4.442;2023-04-07T10:31:26;12.30;99.90
23609;DHT22;11982;50.810;4.442;2023-04-07T10:33:52;12.20;99.90
23609;DHT22;11982;50.810;4.442;2023-04-07T10:36:19;12.00;99.90
23609;DHT22;11982;50.810;4.442;2023-04-07T10:41:37;12.70;99.90
23609;DHT22;11982;50.810;4.442;2023-04-07T10:44:08;13.10;99.90
23609;DHT22;11982;50.810;4.442;2023-04-07T10:49:14;12.70;99.90
23609;DHT22;11982;50.810;4.442;2023-04-07T10:51:41;12.50;99.90
23609;DHT22;11982;50.810;4.442;2023-04-07T10:54:22;12.30;99.90
23609;DHT22;11982;50.810;4.442;2023-04-07T10:59:32;11.70;99.90
23609;DHT22;11982;50.810;4.442;2023-04-07T11:04:50;11.10;99.90
23609;DHT22;11982;50.810;4.442;2023-04-07T11:07:15;11.10;99.90
23609;DHT22;11982;50.810;4.442;2023-04-07T11:09:44;10.90;99.90
23609;DHT22;11982;50.810;4.442;2023-04-07T11:12:22;10.80;99.90
23609;DHT22;11982;50.810;4.442;2023-04-07T11:14:48;11.20;99.90
23609;DHT22;11982;50.810;4.442;2023-04-07T11:17:14;11.60;99.90
23609;DHT22;11982;50.810;4.442;2023-04-07T11:19:53;12.00;99.90
23609;DHT22;11982;50.810;4.442;2023-04-07T11:22:20;12.10;99.90
23609;DHT22;11982;50.810;4.442;2023-04-07T11:24:46;12.10;99.90
23609;DHT22;11982;50.810;4.442;2023-04-07T11:27:12;12.30;99.90
23609;DHT22;11982;50.810;4.442;2023-04-07T11:29:38;12.40;99.90
23609;DHT22;11982;50.810;4.442;2023-04-07T11:32:04;12.50;99.90
23609;DHT22;11982;50.810;4.442;2023-04-07T11:34:35;12.60;99.90
23609;DHT22;11982;50.810;4.442;2023-04-07T11:37:20;12.90;99.90
23609;DHT22;11982;50.810;4.442;2023-04-07T11:39:57;13.10;99.90
23609;DHT22;11982;50.810;4.442;2023-04-07T11:42:38;13.30;99.90
23609;DHT22;11982;50.810;4.442;2023-04-07T11:45:05;13.20;99.90
23609;DHT22;11982;50.810;4.442;2023-04-07T11:47:40;13.20;99.90
23609;DHT22;11982;50.810;4.442;2023-04-07T11:50:06;13.20;99.90
23609;DHT22;11982;50.810;4.442;2023-04-07T11:52:43;12.70;99.90
23609;DHT22;11982;50.810;4.442;2023-04-07T11:55:22;12.10;99.90
23609;DHT22;11982;50.810;4.442;2023-04-07T11:57:51;11.60;99.90
23609;DHT22;11982;50.810;4.442;2023-04-07T12:00:17;11.30;99.90
23609;DHT22;11982;50.810;4.442;2023-04-07T12:02:43;11.10;99.90
23609;DHT22;11982;50.810;4.442;2023-04-07T12:05:09;10.90;99.90
23609;DHT22;11982;50.810;4.442;2023-04-07T12:07:36;10.90;99.90
23609;DHT22;11982;50.810;4.442;2023-04-07T12:10:22;11.00;99.90
23609;DHT22;11982;50.810;4.442;2023-04-07T12:12:50;11.10;99.90
23609;DHT22;11982;50.810;4.442;2023-04-07T12:15:16;11.40;99.90
23609;DHT22;11982;50.810;4.442;2023-04-07T12:17:46;11.80;99.90
23609;DHT22;11982;50.810;4.442;2023-04-07T12:20:13;12.20;99.90
23609;DHT22;11982;50.810;4.442;2023-04-07T12:22:39;12.40;99.90
23609;DHT22;11982;50.810;4.442;2023-04-07T12:25:05;12.40;99.90
23609;DHT22;11982;50.810;4.442;2023-04-07T12:27:31;12.20;99.90
23609;DHT22;11982;50.810;4.442;2023-04-07T12:29:57;11.80;99.90
23609;DHT22;11982;50.810;4.442;2023-04-07T12:32:22;11.30;99.90
23609;DHT22;11982;50.810;4.442;2023-04-07T12:34:48;10.70;99.90
23609;DHT22;11982;50.810;4.442;2023-04-07T12:37:14;10.50;99.90
23609;DHT22;11982;50.810;4.442;2023-04-07T12:39:39;10.20;99.90
23609;DHT22;11982;50.810;4.442;2023-04-07T12:42:05;10.10;99.90
23609;DHT22;11982;50.810;4.442;2023-04-07T12:44:32;10.00;99.90
23609;DHT22;11982;50.810;4.442;2023-04-07T12:46:58;10.00;99.90
23609;DHT22;11982;50.810;4.442;2023-04-07T12:49:23;10.00;99.90
23609;DHT22;11982;50.810;4.442;2023-04-07T12:51:49;10.30;99.90
23609;DHT22;11982;50.810;4.442;2023-04-07T12:54:16;10.30;99.90
23609;DHT22;11982;50.810;4.442;2023-04-07T12:56:41;10.40;99.90
23609;DHT22;11982;50.810;4.442;2023-04-07T12:59:07;10.30;99.90
23609;DHT22;11982;50.810;4.442;2023-04-07T13:01:33;10.70;99.90
23609;DHT22;11982;50.810;4.442;2023-04-07T13:04:00;10.80;99.90
23609;DHT22;11982;50.810;4.442;2023-04-07T13:06:26;10.90;99.90
23609;DHT22;11982;50.810;4.442;2023-04-07T13:08:52;11.10;99.90
23609;DHT22;11982;50.810;4.442;2023-04-07T13:11:17;11.10;99.90
23609;DHT22;11982;50.810;4.442;2023-04-07T13:13:43;11.30;99.90
23609;DHT22;11982;50.810;4.442;2023-04-07T13:16:09;11.30;99.90
23609;DHT22;11982;50.810;4.442;2023-04-07T13:18:34;10.70;99.90
23609;DHT22;11982;50.810;4.442;2023-04-07T13:21:01;10.70;99.90
23609;DHT22;11982;50.810;4.442;2023-04-07T13:23:27;10.30;99.90
23609;DHT22;11982;50.810;4.442;2023-04-07T13:25:53;10.00;99.90
23609;DHT22;11982;50.810;4.442;2023-04-07T13:28:18;9.90;99.90
23609;DHT22;11982;50.810;4.442;2023-04-07T13:30:46;9.90;99.90
23609;DHT22;11982;50.810;4.442;2023-04-07T13:33:11;10.00;99.90
23609;DHT22;11982;50.810;4.442;2023-04-07T13:35:37;10.00;99.90
23609;DHT22;11982;50.810;4.442;2023-04-07T13:38:03;10.20;99.90
23609;DHT22;11982;50.810;4.442;2023-04-07T13:40:29;10.20;99.90
23609;DHT22;11982;50.810;4.442;2023-04-07T13:42:55;10.30;99.90
23609;DHT22;11982;50.810;4.442;2023-04-07T13:45:22;10.30;99.90
23609;DHT22;11982;50.810;4.442;2023-04-07T13:47:47;10.40;99.90
23609;DHT22;11982;50.810;4.442;2023-04-07T13:50:13;10.30;99.90
23609;DHT22;11982;50.810;4.442;2023-04-07T13:52:40;10.30;99.90
23609;DHT22;11982;50.810;4.442;2023-04-07T13:55:06;10.40;99.90
23609;DHT22;11982;50.810;4.442;2023-04-07T13:57:32;10.60;99.90
23609;DHT22;11982;50.810;4.442;2023-04-07T13:59:58;10.70;99.90
23609;DHT22;11982;50.810;4.442;2023-04-07T14:02:25;10.90;99.90
23609;DHT22;11982;50.810;4.442;2023-04-07T14:04:53;10.90;99.90
23609;DHT22;11982;50.810;4.442;2023-04-07T14:07:20;11.10;99.90
23609;DHT22;11982;50.810;4.442;2023-04-07T14:09:47;11.10;99.90
23609;DHT22;11982;50.810;4.442;2023-04-07T14:12:13;11.10;99.90
23609;DHT22;11982;50.810;4.442;2023-04-07T14:14:39;11.20;99.90
23609;DHT22;11982;50.810;4.442;2023-04-07T14:17:05;11.40;99.90
23609;DHT22;11982;50.810;4.442;2023-04-07T14:19:31;11.40;99.90
23609;DHT22;11982;50.810;4.442;2023-04-07T14:21:58;11.60;99.90
23609;DHT22;11982;50.810;4.442;2023-04-07T14:24:23;11.70;99.90
23609;DHT22;11982;50.810;4.442;2023-04-07T14:26:49;11.70;99.90
23609;DHT22;11982;50.810;4.442;2023-04-07T14:29:15;11.80;99.90
23609;DHT22;11982;50.810;4.442;2023-04-07T14:31:41;11.40;99.90
23609;DHT22;11982;50.810;4.442;2023-04-07T14:34:08;11.00;99.90
23609;DHT22;11982;50.810;4.442;2023-04-07T14:36:34;10.70;99.90
23609;DHT22;11982;50.810;4.442;2023-04-07T14:38:59;10.50;99.90
23609;DHT22;11982;50.810;4.442;2023-04-07T14:41:26;10.70;99.90
23609;DHT22;11982;50.810;4.442;2023-04-07T14:43:52;11.00;99.90
23609;DHT22;11982;50.810;4.442;2023-04-07T14:46:24;11.40;99.90
23609;DHT22;11982;50.810;4.442;2023-04-07T14:48:52;11.40;99.90
23609;DHT22;11982;50.810;4.442;2023-04-07T14:51:18;11.30;99.90
23609;DHT22;11982;50.810;4.442;2023-04-07T14:53:44;11.20;99.90
23609;DHT22;11982;50.810;4.442;2023-04-07T14:56:11;11.10;99.90
23609;DHT22;11982;50.810;4.442;2023-04-07T14:58:37;10.90;99.90
23609;DHT22;11982;50.810;4.442;2023-04-07T15:01:05;11.00;99.90
23609;DHT22;11982;50.810;4.442;2023-04-07T15:03:31;10.90;99.90
23609;DHT22;11982;50.810;4.442;2023-04-07T15:05:57;10.80;99.90
23609;DHT22;11982;50.810;4.442;2023-04-07T15:08:23;10.60;99.90
23609;DHT22;11982;50.810;4.442;2023-04-07T15:10:49;10.80;99.90
23609;DHT22;11982;50.810;4.442;2023-04-07T15:13:15;11.00;99.90
23609;DHT22;11982;50.810;4.442;2023-04-07T15:15:40;11.20;99.90
23609;DHT22;11982;50.810;4.442;2023-04-07T15:18:06;11.20;99.90
23609;DHT22;11982;50.810;4.442;2023-04-07T15:20:32;11.20;99.90
23609;DHT22;11982;50.810;4.442;2023-04-07T15:22:58;11.50;99.90
23609;DHT22;11982;50.810;4.442;2023-04-07T15:25:25;11.30;99.90
23609;DHT22;11982;50.810;4.442;2023-04-07T15:27:51;11.00;99.90
23609;DHT22;11982;50.810;4.442;2023-04-07T15:30:17;11.20;99.90
23609;DHT22;11982;50.810;4.442;2023-04-07T15:32:59;11.50;99.90
23609;DHT22;11982;50.810;4.442;2023-04-07T15:35:25;11.50;99.90
23609;DHT22;11982;50.810;4.442;2023-04-07T15:37:51;11.40;99.90
23609;DHT22;11982;50.810;4.442;2023-04-07T15:40:17;11.70;99.90
23609;DHT22;11982;50.810;4.442;2023-04-07T15:42:43;11.90;99.90
23609;DHT22;11982;50.810;4.442;2023-04-07T15:45:09;11.80;99.90
23609;DHT22;11982;50.810;4.442;2023-04-07T15:47:35;11.20;99.90
23609;DHT22;11982;50.810;4.442;2023-04-07T15:50:00;11.10;99.90
23609;DHT22;11982;50.810;4.442;2023-04-07T15:52:27;10.90;99.90
23609;DHT22;11982;50.810;4.442;2023-04-07T15:54:53;10.90;99.90
23609;DHT22;11982;50.810;4.442;2023-04-07T15:57:18;11.00;99.90
23609;DHT22;11982;50.810;4.442;2023-04-07T15:59:46;11.10;99.90
23609;DHT22;11982;50.810;4.442;2023-04-07T16:02:12;11.00;99.90
23609;DHT22;11982;50.810;4.442;2023-04-07T16:04:39;11.20;99.90
23609;DHT22;11982;50.810;4.442;2023-04-07T16:07:05;11.10;99.90